createdAt,value
2023-04-26T00:01:17.893Z,97669.75
2023-04-26T00:03:45.930Z,97666.19
2023-04-26T00:06:14.831Z,97659.78
2023-04-26T00:08:44.908Z,97665.19
2023-04-26T00:11:12.369Z,97660.81
2023-04-26T00:13:39.890Z,97669.00
2023-04-26T00:16:08.670Z,97664.16
2023-04-26T00:18:35.985Z,97672.31
2023-04-26T00:21:03.560Z,97669.44
2023-04-26T00:23:32.000Z,97670.78
2023-04-26T00:25:59.378Z,97668.00
2023-04-26T00:28:26.758Z,97669.09
2023-04-26T00:30:54.162Z,97668.16
2023-04-26T00:33:22.982Z,97670.59
2023-04-26T00:35:50.478Z,97671.47
2023-04-26T00:38:17.886Z,97673.13
2023-04-26T00:40:45.254Z,97668.13
2023-04-26T00:43:12.658Z,97679.91
2023-04-26T00:45:40.449Z,97678.22
2023-04-26T00:48:08.051Z,97674.06
2023-04-26T00:50:37.141Z,97675.06
2023-04-26T00:53:04.900Z,97674.06
2023-04-26T00:55:32.537Z,97679.97
2023-04-26T00:57:59.979Z,97681.69
2023-04-26T01:00:27.972Z,97675.31
2023-04-26T01:02:55.445Z,97677.84
2023-04-26T01:05:22.882Z,97682.25
2023-04-26T01:07:52.363Z,97679.41
2023-04-26T01:10:19.899Z,97680.94
2023-04-26T01:12:48.478Z,97677.56
2023-04-26T01:15:18.553Z,97678.63
2023-04-26T01:17:46.822Z,97682.31
2023-04-26T01:20:14.585Z,97674.56
2023-04-26T01:22:43.268Z,97687.19
2023-04-26T01:25:12.216Z,97683.00
2023-04-26T01:27:39.974Z,97693.47
2023-04-26T01:30:09.727Z,97684.72
2023-04-26T01:32:37.187Z,97695.66
2023-04-26T01:35:07.373Z,97684.94
2023-04-26T01:37:34.928Z,97683.47
2023-04-26T01:40:07.070Z,97683.97
2023-04-26T01:42:34.479Z,97681.28
2023-04-26T01:45:01.989Z,97685.84
2023-04-26T01:47:49.424Z,97684.16
2023-04-26T01:50:17.081Z,97680.78
2023-04-26T01:52:44.456Z,97687.72
2023-04-26T01:55:13.725Z,97693.25
2023-04-26T01:57:42.394Z,97690.56
2023-04-26T02:00:11.468Z,97684.03
2023-04-26T02:02:41.960Z,97679.50
2023-04-26T02:05:11.077Z,97681.53
2023-04-26T02:07:38.938Z,97685.22
2023-04-26T02:10:07.996Z,97681.72
2023-04-26T02:12:36.560Z,97688.94
2023-04-26T02:15:04.779Z,97682.59
2023-04-26T02:17:32.617Z,97687.78
2023-04-26T02:20:00.031Z,97681.59
2023-04-26T02:22:27.763Z,97679.06
2023-04-26T02:24:55.330Z,97674.03
2023-04-26T02:27:27.868Z,97684.09
2023-04-26T02:29:56.748Z,97686.28
2023-04-26T02:32:24.111Z,97683.97
2023-04-26T02:34:51.556Z,97687.31
2023-04-26T02:37:18.914Z,97692.34
2023-04-26T02:39:49.799Z,97701.41
2023-04-26T02:42:17.288Z,97704.75
2023-04-26T02:44:44.811Z,97706.59
2023-04-26T02:47:13.568Z,97711.09
2023-04-26T02:49:40.971Z,97704.22
2023-04-26T02:52:08.328Z,97707.41
2023-04-26T02:54:35.977Z,97703.72
2023-04-26T02:57:03.802Z,97702.53
2023-04-26T02:59:31.450Z,97697.81
2023-04-26T03:01:58.950Z,97695.97
2023-04-26T03:04:30.247Z,97693.09
2023-04-26T03:06:57.644Z,97687.38
2023-04-26T03:09:25.132Z,97686.22
2023-04-26T03:11:52.957Z,97686.06
2023-04-26T03:14:21.071Z,97693.75
2023-04-26T03:16:48.720Z,97687.34
2023-04-26T03:19:16.246Z,97689.22
2023-04-26T03:21:45.685Z,97687.34
2023-04-26T03:24:13.111Z,97674.97
2023-04-26T03:26:40.742Z,97684.84
2023-04-26T03:29:08.537Z,97676.81
2023-04-26T03:31:36.119Z,97689.03
2023-04-26T03:34:03.580Z,97692.00
2023-04-26T03:36:31.362Z,97694.19
2023-04-26T03:39:00.196Z,97695.03
2023-04-26T03:41:27.657Z,97698.56
2023-04-26T03:43:56.426Z,97703.78
2023-04-26T03:46:24.486Z,97703.94
2023-04-26T03:48:52.245Z,97709.16
2023-04-26T03:51:19.984Z,97707.63
2023-04-26T03:53:48.725Z,97706.13
2023-04-26T03:56:17.569Z,97703.44
2023-04-26T03:58:45.148Z,97703.94
2023-04-26T04:01:12.577Z,97699.75
2023-04-26T04:03:41.260Z,97703.44
2023-04-26T04:06:09.677Z,97705.13
2023-04-26T04:08:37.087Z,97703.22
2023-04-26T04:11:04.727Z,97701.72
2023-04-26T04:13:38.042Z,97709.28
2023-04-26T04:16:06.870Z,97713.13
2023-04-26T04:18:34.521Z,97718.31
2023-04-26T04:21:01.918Z,97704.28
2023-04-26T04:23:29.423Z,97713.53
2023-04-26T04:25:56.833Z,97710.84
2023-04-26T04:28:24.409Z,97711.50
2023-04-26T04:30:53.601Z,97710.19
2023-04-26T04:33:21.103Z,97721.56
2023-04-26T04:35:48.660Z,97716.56
2023-04-26T04:38:16.163Z,97715.91
2023-04-26T04:40:43.655Z,97716.09
2023-04-26T04:43:12.237Z,97715.59
2023-04-26T04:45:40.351Z,97712.75
2023-04-26T04:48:11.388Z,97710.06
2023-04-26T04:50:39.913Z,97713.25
2023-04-26T04:53:08.927Z,97714.44
2023-04-26T04:55:37.802Z,97725.00
2023-04-26T04:58:05.231Z,97716.13
2023-04-26T05:00:34.182Z,97729.19
2023-04-26T05:03:23.097Z,97727.03
2023-04-26T05:05:51.617Z,97731.03
2023-04-26T05:08:19.026Z,97726.03
2023-04-26T05:10:46.605Z,97729.19
2023-04-26T05:13:14.095Z,97738.09
2023-04-26T05:15:42.035Z,97737.94
2023-04-26T05:18:10.117Z,97736.75
2023-04-26T05:20:39.072Z,97747.84
2023-04-26T05:23:06.781Z,97750.84
2023-04-26T05:25:37.227Z,97746.19
2023-04-26T05:28:18.384Z,97754.59
2023-04-26T05:31:18.150Z,97752.75
2023-04-26T05:33:54.645Z,97761.16
2023-04-26T05:36:32.831Z,97754.09
2023-04-26T05:39:00.238Z,97752.28
2023-04-26T05:41:27.690Z,97753.63
2023-04-26T05:43:55.612Z,97761.00
2023-04-26T05:46:23.190Z,97756.63
2023-04-26T05:48:50.747Z,97765.19
2023-04-26T05:51:18.118Z,97770.03
2023-04-26T05:53:47.244Z,97767.69
2023-04-26T05:56:15.210Z,97768.00
2023-04-26T05:58:43.461Z,97768.50
2023-04-26T06:01:12.366Z,97766.66
2023-04-26T06:03:39.967Z,97773.88
2023-04-26T06:06:08.195Z,97769.66
2023-04-26T06:08:38.800Z,97769.63
2023-04-26T06:11:07.705Z,97775.31
2023-04-26T06:13:35.117Z,97775.00
2023-04-26T06:16:02.616Z,97768.75
2023-04-26T06:18:30.216Z,97770.94
2023-04-26T06:20:57.704Z,97760.75
2023-04-26T06:23:25.412Z,97763.53
2023-04-26T06:25:52.899Z,97769.50
2023-04-26T06:28:21.731Z,97767.50
2023-04-26T06:30:49.317Z,97760.50
2023-04-26T06:33:16.854Z,97773.31
2023-04-26T06:35:44.296Z,97769.31
2023-04-26T06:38:12.927Z,97776.72
2023-04-26T06:40:40.401Z,97774.34
2023-04-26T06:43:08.920Z,97770.97
2023-04-26T06:45:43.625Z,97781.94
2023-04-26T06:48:13.054Z,97785.16
2023-04-26T06:50:40.672Z,97785.28
2023-04-26T06:53:08.395Z,97783.75
2023-04-26T06:55:35.810Z,97780.69
2023-04-26T06:58:03.194Z,97785.75
2023-04-26T07:00:30.633Z,97783.56
2023-04-26T07:02:59.486Z,97783.72
2023-04-26T07:05:26.961Z,97783.75
2023-04-26T07:07:54.370Z,97777.28
2023-04-26T07:10:22.125Z,97779.22
2023-04-26T07:12:49.509Z,97773.47
2023-04-26T07:15:16.915Z,97776.00
2023-04-26T07:17:44.374Z,97765.94
2023-04-26T07:20:15.690Z,97766.63
2023-04-26T07:22:43.056Z,97765.44
2023-04-26T07:25:10.579Z,97767.81
2023-04-26T07:27:38.134Z,97762.88
2023-04-26T07:30:06.763Z,97759.28
2023-04-26T07:32:34.213Z,97763.69
2023-04-26T07:35:01.759Z,97763.88
2023-04-26T07:37:30.902Z,97763.34
2023-04-26T07:39:58.257Z,97769.06
2023-04-26T07:42:25.604Z,97760.88
2023-04-26T07:44:52.930Z,97759.94
2023-04-26T07:47:20.510Z,97752.88
2023-04-26T07:49:53.073Z,97758.03
2023-04-26T07:52:20.710Z,97757.72
2023-04-26T07:54:49.525Z,97758.69
2023-04-26T07:57:16.982Z,97758.50
2023-04-26T07:59:44.425Z,97757.44
2023-04-26T08:02:11.952Z,97766.47
2023-04-26T08:04:48.313Z,97753.84
2023-04-26T08:07:16.550Z,97759.47
2023-04-26T08:09:44.568Z,97756.00
2023-04-26T08:12:13.325Z,97763.06
2023-04-26T08:14:41.002Z,97752.25
2023-04-26T08:17:12.151Z,97744.28
2023-04-26T08:19:39.635Z,97762.34
2023-04-26T08:22:07.200Z,97758.38
2023-04-26T08:24:34.676Z,97758.28
2023-04-26T08:27:02.317Z,97758.22
2023-04-26T08:29:31.533Z,97759.09
2023-04-26T08:31:59.030Z,97755.97
2023-04-26T08:34:28.221Z,97770.81
2023-04-26T08:36:56.035Z,97762.00
2023-04-26T08:39:24.120Z,97764.53
2023-04-26T08:41:55.090Z,97765.81
2023-04-26T08:44:24.311Z,97755.59
2023-04-26T08:47:01.300Z,97757.66
2023-04-26T08:49:39.680Z,97757.88
2023-04-26T08:52:09.728Z,97762.66
2023-04-26T08:54:38.046Z,97759.94
2023-04-26T08:57:07.463Z,97758.72
2023-04-26T08:59:36.792Z,97763.75
2023-04-26T09:02:07.683Z,97762.25
2023-04-26T09:04:36.170Z,97761.63
2023-04-26T09:07:04.582Z,97768.91
2023-04-26T09:09:37.919Z,97757.41
2023-04-26T09:12:05.852Z,97757.06
2023-04-26T09:14:33.293Z,97759.09
2023-04-26T09:17:01.117Z,97745.28
2023-04-26T09:19:37.440Z,97754.44
2023-04-26T09:22:06.572Z,97754.59
2023-04-26T09:24:48.124Z,97745.72
2023-04-26T09:27:16.665Z,97755.03
2023-04-26T09:29:58.536Z,97742.34
2023-04-26T09:32:26.224Z,97738.09
2023-04-26T09:34:54.999Z,97741.31
2023-04-26T09:37:22.423Z,97733.69
2023-04-26T09:39:49.929Z,97730.28
2023-04-26T09:42:18.828Z,97722.00
2023-04-26T09:44:46.267Z,97722.97
2023-04-26T09:47:13.856Z,97732.47
2023-04-26T09:49:46.661Z,97726.53
2023-04-26T09:52:16.391Z,97714.22
2023-04-26T09:54:46.168Z,97727.34
2023-04-26T09:57:15.570Z,97733.22
2023-04-26T09:59:45.069Z,97723.81
2023-04-26T10:02:18.680Z,97713.06
2023-04-26T10:04:47.729Z,97714.63
2023-04-26T10:07:18.387Z,97719.09
2023-04-26T10:09:46.912Z,97704.47
2023-04-26T10:12:16.380Z,97694.56
2023-04-26T10:14:44.830Z,97705.38
2023-04-26T10:17:12.718Z,97693.22
2023-04-26T10:19:44.098Z,97701.13
2023-04-26T10:22:21.506Z,97694.91
2023-04-26T10:24:50.629Z,97699.47
2023-04-26T10:27:47.651Z,97701.72
2023-04-26T10:30:16.400Z,97693.84
2023-04-26T10:33:16.660Z,97693.13
2023-04-26T10:36:08.426Z,97689.09
2023-04-26T10:38:39.325Z,97680.66
2023-04-26T10:41:32.010Z,97681.31
2023-04-26T10:44:21.083Z,97682.50
2023-04-26T10:46:51.614Z,97679.00
2023-04-26T10:49:24.308Z,97674.09
2023-04-26T10:52:12.874Z,97674.34
2023-04-26T10:54:53.198Z,97667.19
2023-04-26T10:57:21.686Z,97674.75
2023-04-26T11:00:21.273Z,97675.19
2023-04-26T11:02:58.006Z,97676.41
2023-04-26T11:05:50.979Z,97679.47
2023-04-26T11:08:20.568Z,97680.16
2023-04-26T11:10:57.921Z,97670.97
2023-04-26T11:13:25.441Z,97673.84
2023-04-26T11:15:54.321Z,97670.44
2023-04-26T11:18:22.416Z,97673.78
2023-04-26T11:20:49.914Z,97671.41
2023-04-26T11:23:18.370Z,97666.31
2023-04-26T11:25:45.957Z,97662.16
2023-04-26T11:28:14.844Z,97660.84
2023-04-26T11:30:43.951Z,97664.47
2023-04-26T11:33:17.886Z,97659.66
2023-04-26T11:35:46.980Z,97655.59
2023-04-26T11:38:15.407Z,97654.13
2023-04-26T11:40:43.058Z,97654.69
2023-04-26T11:43:11.684Z,97658.00
2023-04-26T11:45:43.099Z,97641.34
2023-04-26T11:48:12.531Z,97647.53
2023-04-26T11:50:49.021Z,97647.53
2023-04-26T11:53:16.413Z,97650.13
2023-04-26T11:55:44.955Z,97646.06
2023-04-26T11:58:13.751Z,97645.22
2023-04-26T12:00:58.816Z,97639.84
2023-04-26T12:03:30.579Z,97636.66
2023-04-26T12:05:58.245Z,97623.19
2023-04-26T12:08:26.910Z,97621.09
2023-04-26T12:10:54.427Z,97622.97
2023-04-26T12:13:21.903Z,97612.53
2023-04-26T12:15:51.285Z,97605.94
2023-04-26T12:18:20.444Z,97602.53
2023-04-26T12:20:48.162Z,97605.41
2023-04-26T12:23:17.281Z,97604.38
2023-04-26T12:25:53.510Z,97608.47
2023-04-26T12:28:21.349Z,97603.06
2023-04-26T12:30:49.577Z,97598.00
2023-04-26T12:33:19.837Z,97597.25
2023-04-26T12:35:48.982Z,97602.00
2023-04-26T12:38:16.754Z,97602.59
2023-04-26T12:40:47.316Z,97607.06
2023-04-26T12:43:16.719Z,97600.44
2023-04-26T12:45:44.280Z,97599.06
2023-04-26T12:48:12.055Z,97597.03
2023-04-26T12:50:39.549Z,97598.19
2023-04-26T12:53:08.325Z,97588.34
2023-04-26T12:55:35.791Z,97581.97
2023-04-26T12:58:03.235Z,97592.03
2023-04-26T13:00:31.171Z,97584.56
2023-04-26T13:02:58.537Z,97585.28
2023-04-26T13:05:26.169Z,97577.75
2023-04-26T13:07:53.797Z,97580.22
2023-04-26T13:10:22.690Z,97565.34
2023-04-26T13:12:50.245Z,97572.84
2023-04-26T13:15:18.062Z,97578.19
2023-04-26T13:17:45.754Z,97589.25
2023-04-26T13:20:13.799Z,97580.16
2023-04-26T13:22:42.531Z,97578.72
2023-04-26T13:25:10.893Z,97582.75
2023-04-26T13:27:40.012Z,97573.41
2023-04-26T13:30:08.724Z,97569.16
2023-04-26T13:32:36.258Z,97563.97
2023-04-26T13:35:04.429Z,97569.00
2023-04-26T13:37:32.825Z,97560.16
2023-04-26T13:40:00.327Z,97563.91
2023-04-26T13:42:28.227Z,97575.50
2023-04-26T13:44:57.083Z,97572.38
2023-04-26T13:47:24.657Z,97576.13
2023-04-26T13:49:52.054Z,97567.72
2023-04-26T13:52:19.414Z,97565.59
2023-04-26T13:54:46.864Z,97559.25
2023-04-26T13:57:14.545Z,97570.31
2023-04-26T13:59:41.991Z,97565.84
2023-04-26T14:02:10.955Z,97565.88
2023-04-26T14:04:39.442Z,97557.28
2023-04-26T14:07:07.374Z,97559.44
2023-04-26T14:09:34.767Z,97565.97
2023-04-26T14:12:08.389Z,97564.44
2023-04-26T14:14:37.015Z,97558.78
2023-04-26T14:17:04.394Z,97563.94
2023-04-26T14:19:33.164Z,97558.38
2023-04-26T14:22:00.558Z,97556.25
2023-04-26T14:24:28.097Z,97555.09
2023-04-26T14:26:55.677Z,97560.94
2023-04-26T14:29:23.046Z,97557.28
2023-04-26T14:31:51.073Z,97551.13
2023-04-26T14:34:18.699Z,97551.75
2023-04-26T14:36:47.605Z,97545.66
2023-04-26T14:39:16.139Z,97545.44
2023-04-26T14:41:43.563Z,97550.84
2023-04-26T14:44:11.244Z,97547.66
2023-04-26T14:46:38.712Z,97535.31
2023-04-26T14:49:06.328Z,97538.22
2023-04-26T14:51:33.810Z,97542.84
2023-04-26T14:54:02.590Z,97543.69
2023-04-26T14:56:33.199Z,97546.81
2023-04-26T14:59:01.482Z,97542.09
2023-04-26T15:01:28.896Z,97524.13
2023-04-26T15:03:59.347Z,97535.66
2023-04-26T15:06:28.691Z,97545.94
2023-04-26T15:08:56.110Z,97530.78
2023-04-26T15:11:24.923Z,97528.59
2023-04-26T15:13:52.497Z,97529.53
2023-04-26T15:16:20.035Z,97533.69
2023-04-26T15:18:47.540Z,97527.31
2023-04-26T15:21:17.923Z,97531.88
2023-04-26T15:23:45.569Z,97531.41
2023-04-26T15:26:13.224Z,97532.47
2023-04-26T15:28:42.188Z,97528.41
2023-04-26T15:31:10.607Z,97529.53
2023-04-26T15:33:38.160Z,97522.19
2023-04-26T15:36:06.808Z,97522.53
2023-04-26T15:38:34.460Z,97527.56
2023-04-26T15:41:01.924Z,97525.97
2023-04-26T15:43:29.292Z,97512.69
2023-04-26T15:45:58.130Z,97510.03
2023-04-26T15:48:26.356Z,97511.34
2023-04-26T15:50:53.910Z,97511.78
2023-04-26T15:53:21.827Z,97506.03
2023-04-26T15:55:49.336Z,97517.66
2023-04-26T15:58:17.048Z,97513.81
2023-04-26T16:00:44.443Z,97526.19
2023-04-26T16:03:13.298Z,97512.75
2023-04-26T16:05:40.963Z,97517.84
2023-04-26T16:08:08.463Z,97515.38
2023-04-26T16:10:38.268Z,97510.72
2023-04-26T16:13:06.053Z,97513.53
2023-04-26T16:15:33.476Z,97506.56
2023-04-26T16:18:01.098Z,97509.38
2023-04-26T16:20:31.610Z,97505.50
2023-04-26T16:22:59.107Z,97506.69
2023-04-26T16:25:26.552Z,97502.25
2023-04-26T16:27:54.156Z,97504.72
2023-04-26T16:30:21.565Z,97505.84
2023-04-26T16:32:49.150Z,97503.38
2023-04-26T16:35:16.746Z,97512.47
2023-04-26T16:37:46.581Z,97507.19
2023-04-26T16:40:14.547Z,97511.34
2023-04-26T16:42:43.307Z,97508.16
2023-04-26T16:45:16.543Z,97523.50
2023-04-26T16:47:44.358Z,97515.91
2023-04-26T16:50:11.921Z,97518.47
2023-04-26T16:52:39.363Z,97510.97
2023-04-26T16:55:09.329Z,97507.53
2023-04-26T16:57:36.764Z,97513.53
2023-04-26T17:00:07.846Z,97503.41
2023-04-26T17:02:36.149Z,97511.63
2023-04-26T17:05:04.105Z,97506.59
2023-04-26T17:07:31.512Z,97518.38
2023-04-26T17:09:59.212Z,97519.78
2023-04-26T17:12:28.096Z,97523.75
2023-04-26T17:14:56.233Z,97529.75
2023-04-26T17:17:23.454Z,97529.09
2023-04-26T17:19:50.851Z,97535.03
2023-04-26T17:22:18.275Z,97530.41
2023-04-26T17:24:45.695Z,97534.50
2023-04-26T17:27:13.234Z,97531.47
2023-04-26T17:29:43.778Z,97536.69
2023-04-26T17:32:11.236Z,97540.38
2023-04-26T17:34:39.207Z,97538.75
2023-04-26T17:37:06.756Z,97538.13
2023-04-26T17:39:34.222Z,97552.09
2023-04-26T17:42:03.043Z,97549.44
2023-04-26T17:44:30.525Z,97550.41
2023-04-26T17:46:59.376Z,97535.94
2023-04-26T17:49:26.802Z,97558.22
2023-04-26T17:51:54.238Z,97556.28
2023-04-26T17:54:22.204Z,97560.47
2023-04-26T17:56:50.213Z,97556.91
2023-04-26T17:59:17.723Z,97558.84
2023-04-26T18:01:45.484Z,97563.13
2023-04-26T18:04:14.495Z,97566.44
2023-04-26T18:06:42.420Z,97569.53
2023-04-26T18:09:10.601Z,97567.13
2023-04-26T18:11:38.162Z,97571.94
2023-04-26T18:14:05.747Z,97578.69
2023-04-26T18:16:33.299Z,97579.66
2023-04-26T18:19:00.922Z,97588.53
2023-04-26T18:21:29.683Z,97591.94
2023-04-26T18:23:57.171Z,97592.41
2023-04-26T18:26:24.820Z,97595.16
2023-04-26T18:28:52.876Z,97593.22
2023-04-26T18:31:22.050Z,97603.88
2023-04-26T18:33:49.716Z,97603.66
2023-04-26T18:36:20.217Z,97607.94
2023-04-26T18:38:49.132Z,97604.22
2023-04-26T18:41:16.768Z,97606.75
2023-04-26T18:43:44.130Z,97602.31
2023-04-26T18:46:11.649Z,97611.81
2023-04-26T18:48:39.314Z,97607.91
2023-04-26T18:51:06.986Z,97614.03
2023-04-26T18:53:34.546Z,97617.88
2023-04-26T18:56:03.755Z,97619.56
2023-04-26T18:58:31.343Z,97625.75
2023-04-26T19:00:58.883Z,97619.31
2023-04-26T19:03:27.021Z,97628.47
2023-04-26T19:05:54.761Z,97629.50
2023-04-26T19:08:22.182Z,97636.63
2023-04-26T19:10:49.657Z,97638.34
2023-04-26T19:13:19.109Z,97635.25
2023-04-26T19:15:46.856Z,97637.34
2023-04-26T19:18:14.394Z,97638.78
2023-04-26T19:20:41.882Z,97649.69
2023-04-26T19:23:09.437Z,97650.53
2023-04-26T19:25:36.953Z,97652.84
2023-04-26T19:28:04.459Z,97656.00
2023-04-26T19:30:33.258Z,97654.97
2023-04-26T19:33:00.713Z,97666.63
2023-04-26T19:35:28.720Z,97666.00
2023-04-26T19:37:56.340Z,97665.19
2023-04-26T19:40:24.053Z,97675.59
2023-04-26T19:42:51.661Z,97667.03
2023-04-26T19:45:20.496Z,97683.09
2023-04-26T19:47:49.341Z,97684.34
2023-04-26T19:50:16.884Z,97685.78
2023-04-26T19:52:44.818Z,97683.28
2023-04-26T19:55:12.308Z,97677.44
2023-04-26T19:57:39.846Z,97692.84
2023-04-26T20:00:08.543Z,97684.31
2023-04-26T20:02:36.077Z,97690.16
2023-04-26T20:05:05.771Z,97696.59
2023-04-26T20:07:33.218Z,97695.97
2023-04-26T20:10:00.741Z,97702.41
2023-04-26T20:12:28.174Z,97700.31
2023-04-26T20:14:55.659Z,97705.34
2023-04-26T20:17:23.215Z,97704.06
2023-04-26T20:19:50.638Z,97711.78
2023-04-26T20:22:19.379Z,97703.66
2023-04-26T20:24:46.849Z,97704.06
2023-04-26T20:27:14.168Z,97702.19
2023-04-26T20:29:41.593Z,97713.25
2023-04-26T20:32:08.965Z,97707.81
2023-04-26T20:34:36.524Z,97709.25
2023-04-26T20:37:03.852Z,97711.59
2023-04-26T20:39:33.802Z,97710.94
2023-04-26T20:42:01.419Z,97709.91
2023-04-26T20:44:29.989Z,97714.69
2023-04-26T20:46:57.325Z,97698.19
2023-04-26T20:49:24.683Z,97704.88
2023-04-26T20:51:52.052Z,97699.25
2023-04-26T20:54:19.450Z,97700.06
2023-04-26T20:56:48.369Z,97702.13
2023-04-26T20:59:15.852Z,97702.75
2023-04-26T21:01:43.345Z,97704.63
2023-04-26T21:04:10.848Z,97706.31
2023-04-26T21:06:38.931Z,97711.50
2023-04-26T21:09:06.626Z,97708.09
2023-04-26T21:11:34.266Z,97710.38
2023-04-26T21:14:04.251Z,97709.75
2023-04-26T21:16:31.668Z,97710.75
2023-04-26T21:18:59.077Z,97697.22
2023-04-26T21:21:28.318Z,97706.38
2023-04-26T21:23:55.853Z,97701.16
2023-04-26T21:26:23.331Z,97711.31
2023-04-26T21:28:50.906Z,97701.31
2023-04-26T21:31:19.781Z,97709.00
2023-04-26T21:33:47.177Z,97707.28
2023-04-26T21:36:14.642Z,97712.88
2023-04-26T21:38:42.149Z,97711.75
2023-04-26T21:41:09.662Z,97710.13
2023-04-26T21:43:37.160Z,97712.16
2023-04-26T21:46:05.011Z,97707.13
2023-04-26T21:48:33.909Z,97715.25
2023-04-26T21:51:01.360Z,97707.09
2023-04-26T21:53:29.001Z,97711.44
2023-04-26T21:55:56.641Z,97708.03
2023-04-26T21:58:24.155Z,97705.47
2023-04-26T22:00:52.146Z,97710.41
2023-04-26T22:03:20.045Z,97717.91
2023-04-26T22:05:49.040Z,97720.81
2023-04-26T22:08:16.729Z,97713.09
2023-04-26T22:10:44.211Z,97715.16
2023-04-26T22:13:11.656Z,97722.84
2023-04-26T22:15:39.067Z,97722.41
2023-04-26T22:18:07.689Z,97727.59
2023-04-26T22:20:35.294Z,97725.72
2023-04-26T22:23:04.092Z,97731.13
2023-04-26T22:25:31.647Z,97730.28
2023-04-26T22:27:59.216Z,97724.88
2023-04-26T22:30:27.002Z,97729.00
2023-04-26T22:32:57.342Z,97719.22
2023-04-26T22:35:26.254Z,97722.31
2023-04-26T22:37:53.923Z,97725.22
2023-04-26T22:40:22.871Z,97723.97
2023-04-26T22:42:50.371Z,97716.69
2023-04-26T22:45:18.220Z,97718.78
2023-04-26T22:47:45.942Z,97714.59
2023-04-26T22:50:13.403Z,97720.66
2023-04-26T22:52:41.044Z,97713.88
2023-04-26T22:55:09.670Z,97715.09
2023-04-26T22:57:38.576Z,97712.41
2023-04-26T23:00:10.242Z,97710.47
2023-04-26T23:02:38.036Z,97723.72
2023-04-26T23:05:09.495Z,97719.06
2023-04-26T23:07:37.507Z,97718.63
2023-04-26T23:10:06.183Z,97721.34
2023-04-26T23:12:33.519Z,97723.38
2023-04-26T23:15:03.606Z,97728.16
2023-04-26T23:17:34.013Z,97726.09
2023-04-26T23:20:01.777Z,97731.97
2023-04-26T23:22:29.286Z,97725.72
2023-04-26T23:24:56.761Z,97726.56
2023-04-26T23:27:24.871Z,97727.97
2023-04-26T23:29:52.284Z,97728.78
2023-04-26T23:32:21.050Z,97730.59
2023-04-26T23:34:48.589Z,97730.03
2023-04-26T23:37:16.129Z,97725.19
2023-04-26T23:39:43.789Z,97728.09
2023-04-26T23:42:11.511Z,97727.44
2023-04-26T23:44:38.940Z,97732.47
2023-04-26T23:47:06.451Z,97729.75
2023-04-26T23:49:35.281Z,97736.19
2023-04-26T23:52:02.785Z,97729.09
2023-04-26T23:54:31.250Z,97732.38
2023-04-26T23:56:58.726Z,97729.69
2023-04-26T23:59:26.116Z,97730.25
